createdAt,value
2022-10-03T00:01:08.471Z,101318.16
2022-10-03T00:03:36.814Z,101326.91
2022-10-03T00:06:06.305Z,101314.75
2022-10-03T00:08:35.321Z,101327.75
2022-10-03T00:11:20.357Z,101326.91
2022-10-03T00:13:49.702Z,101333.28
2022-10-03T00:16:19.012Z,101331.06
2022-10-03T00:18:47.602Z,101335.53
2022-10-03T00:21:22.339Z,101334.03
2022-10-03T00:23:51.795Z,101341.09
2022-10-03T00:26:30.417Z,101346.84
2022-10-03T00:29:00.833Z,101348.34
2022-10-03T00:31:53.451Z,101349.72
2022-10-03T00:34:33.734Z,101349.81
2022-10-03T00:37:08.214Z,101356.31
2022-10-03T00:39:38.684Z,101352.06
2022-10-03T00:42:13.560Z,101354.09
2022-10-03T00:44:52.317Z,101359.66
2022-10-03T00:47:38.142Z,101368.41
2022-10-03T00:50:22.992Z,101369.13
2022-10-03T00:52:55.209Z,101359.75
2022-10-03T00:55:43.216Z,101375.63
2022-10-03T00:58:28.664Z,101368.41
2022-10-03T01:00:58.409Z,101382.13
2022-10-03T01:03:33.575Z,101378.53
2022-10-03T01:06:08.975Z,101368.41
2022-10-03T01:08:38.117Z,101371.38
2022-10-03T01:11:07.461Z,101374.16
2022-10-03T01:13:52.350Z,101379.91
2022-10-03T01:16:27.352Z,101375.53
2022-10-03T01:18:57.149Z,101383.44
2022-10-03T01:21:30.338Z,101391.97
2022-10-03T01:23:56.578Z,101389.94
2022-10-03T01:26:42.263Z,101383.31
2022-10-03T01:29:44.661Z,101389.72
2022-10-03T01:32:13.879Z,101395.59
2022-10-03T01:34:54.545Z,101386.31
2022-10-03T01:37:23.662Z,101395.47
2022-10-03T01:40:08.898Z,101392.50
2022-10-03T01:42:37.898Z,101404.03
2022-10-03T01:45:08.373Z,101399.66
2022-10-03T01:47:39.562Z,101394.00
2022-10-03T01:50:18.182Z,101402.00
2022-10-03T01:53:04.502Z,101402.53
2022-10-03T01:55:37.546Z,101408.28
2022-10-03T01:58:05.806Z,101404.66
2022-10-03T02:00:35.803Z,101396.75
2022-10-03T02:03:11.251Z,101412.75
2022-10-03T02:05:56.176Z,101414.25
2022-10-03T02:08:30.911Z,101410.41
2022-10-03T02:11:08.279Z,101416.06
2022-10-03T02:13:37.661Z,101415.53
2022-10-03T02:16:10.599Z,101419.78
2022-10-03T02:18:55.602Z,101419.78
2022-10-03T02:21:22.699Z,101423.53
2022-10-03T02:23:49.277Z,101423.53
2022-10-03T02:26:23.292Z,101419.16
2022-10-03T02:28:59.039Z,101418.50
2022-10-03T02:31:44.261Z,101419.78
2022-10-03T02:34:23.224Z,101422.91
2022-10-03T02:37:08.272Z,101417.13
2022-10-03T02:39:39.414Z,101421.50
2022-10-03T02:42:25.117Z,101421.50
2022-10-03T02:45:01.745Z,101430.25
2022-10-03T02:47:36.645Z,101423.13
2022-10-03T02:50:21.837Z,101426.09
2022-10-03T02:52:52.579Z,101429.72
2022-10-03T02:55:18.809Z,101428.97
2022-10-03T02:57:50.622Z,101439.09
2022-10-03T03:00:17.868Z,101437.69
2022-10-03T03:02:46.986Z,101436.22
2022-10-03T03:05:25.683Z,101443.47
2022-10-03T03:08:00.841Z,101441.34
2022-10-03T03:10:32.293Z,101447.75
2022-10-03T03:13:22.406Z,101449.22
2022-10-03T03:15:48.687Z,101437.69
2022-10-03T03:18:30.219Z,101447.75
2022-10-03T03:21:05.782Z,101448.47
2022-10-03T03:23:36.114Z,101441.25
2022-10-03T03:26:20.728Z,101440.41
2022-10-03T03:29:10.197Z,101446.88
2022-10-03T03:31:42.202Z,101454.03
2022-10-03T03:34:19.035Z,101447.53
2022-10-03T03:37:03.890Z,101452.53
2022-10-03T03:39:48.003Z,101460.44
2022-10-03T03:42:34.245Z,101460.44
2022-10-03T03:45:00.468Z,101459.03
2022-10-03T03:47:36.573Z,101461.19
2022-10-03T03:50:06.515Z,101452.53
2022-10-03T03:52:51.409Z,101466.94
2022-10-03T03:55:36.485Z,101467.56
2022-10-03T03:58:06.019Z,101479.09
2022-10-03T04:00:46.334Z,101471.84
2022-10-03T04:03:18.085Z,101479.09
2022-10-03T04:06:02.225Z,101480.47
2022-10-03T04:08:47.332Z,101476.09
2022-10-03T04:11:21.221Z,101476.09
2022-10-03T04:13:47.804Z,101474.00
2022-10-03T04:16:16.816Z,101468.84
2022-10-03T04:19:04.201Z,101478.25
2022-10-03T04:21:41.115Z,101474.63
2022-10-03T04:24:13.766Z,101480.47
2022-10-03T04:26:51.865Z,101482.75
2022-10-03T04:29:25.429Z,101482.06
2022-10-03T04:31:57.841Z,101476.44
2022-10-03T04:34:42.909Z,101475.06
2022-10-03T04:37:11.857Z,101483.03
2022-10-03T04:39:49.778Z,101483.78
2022-10-03T04:42:40.869Z,101483.16
2022-10-03T04:45:18.183Z,101483.91
2022-10-03T04:47:51.909Z,101499.81
2022-10-03T04:50:21.439Z,101493.31
2022-10-03T04:53:06.587Z,101498.28
2022-10-03T04:56:09.871Z,101491.91
2022-10-03T04:58:37.929Z,101495.41
2022-10-03T05:01:18.173Z,101493.28
2022-10-03T05:03:53.187Z,101500.75
2022-10-03T05:06:22.830Z,101488.06
2022-10-03T05:08:59.557Z,101503.94
2022-10-03T05:11:42.348Z,101508.34
2022-10-03T05:14:11.296Z,101516.22
2022-10-03T05:16:38.908Z,101523.34
2022-10-03T05:19:25.481Z,101513.34
2022-10-03T05:21:59.333Z,101512.59
2022-10-03T05:24:28.431Z,101519.75
2022-10-03T05:26:58.746Z,101520.38
2022-10-03T05:29:38.741Z,101519.00
2022-10-03T05:32:13.512Z,101529.88
2022-10-03T05:34:47.308Z,101534.13
2022-10-03T05:37:27.574Z,101529.00
2022-10-03T05:40:00.261Z,101531.16
2022-10-03T05:42:36.306Z,101541.38
2022-10-03T05:45:10.106Z,101539.91
2022-10-03T05:47:49.228Z,101542.66
2022-10-03T05:50:35.057Z,101539.16
2022-10-03T05:53:19.703Z,101532.66
2022-10-03T05:55:45.946Z,101538.41
2022-10-03T05:58:26.827Z,101537.66
2022-10-03T06:01:00.538Z,101542.66
2022-10-03T06:03:38.818Z,101531.78
2022-10-03T06:06:12.450Z,101546.94
2022-10-03T06:08:45.063Z,101551.94
2022-10-03T06:11:29.965Z,101551.19
2022-10-03T06:14:07.498Z,101564.22
2022-10-03T06:16:39.816Z,101564.00
2022-10-03T06:19:24.983Z,101569.53
2022-10-03T06:22:10.274Z,101572.28
2022-10-03T06:24:55.176Z,101570.81
2022-10-03T06:27:27.307Z,101580.81
2022-10-03T06:30:03.555Z,101581.59
2022-10-03T06:32:48.477Z,101580.06
2022-10-03T06:35:32.207Z,101583.81
2022-10-03T06:38:17.314Z,101589.56
2022-10-03T06:40:54.956Z,101589.69
2022-10-03T06:43:29.981Z,101584.03
2022-10-03T06:46:16.113Z,101598.66
2022-10-03T06:48:46.545Z,101595.78
2022-10-03T06:51:18.853Z,101591.06
2022-10-03T06:54:06.031Z,101594.66
2022-10-03T06:56:49.608Z,101597.41
2022-10-03T06:59:28.695Z,101598.47
2022-10-03T07:01:58.006Z,101598.53
2022-10-03T07:04:43.149Z,101596.25
2022-10-03T07:07:14.109Z,101600.31
2022-10-03T07:09:53.794Z,101606.88
2022-10-03T07:12:39.023Z,101607.94
2022-10-03T07:15:05.287Z,101611.84
2022-10-03T07:17:43.213Z,101617.84
2022-10-03T07:20:15.721Z,101623.28
2022-10-03T07:23:06.364Z,101633.22
2022-10-03T07:25:39.975Z,101638.38
2022-10-03T07:28:15.749Z,101638.66
2022-10-03T07:30:47.993Z,101639.34
2022-10-03T07:33:24.905Z,101632.72
2022-10-03T07:36:28.782Z,101637.47
2022-10-03T07:38:58.023Z,101638.47
2022-10-03T07:41:43.444Z,101637.59
2022-10-03T07:44:09.988Z,101639.31
2022-10-03T07:46:55.438Z,101638.69
2022-10-03T07:49:31.950Z,101644.31
2022-10-03T07:52:16.050Z,101645.38
2022-10-03T07:54:42.310Z,101646.38
2022-10-03T07:57:12.501Z,101661.13
2022-10-03T07:59:52.407Z,101654.88
2022-10-03T08:02:29.820Z,101662.25
2022-10-03T08:05:02.981Z,101658.09
2022-10-03T08:07:35.333Z,101666.09
2022-10-03T08:10:19.943Z,101672.13
2022-10-03T08:12:56.426Z,101676.59
2022-10-03T08:15:30.215Z,101684.50
2022-10-03T08:18:06.469Z,101688.13
2022-10-03T08:20:32.715Z,101679.72
2022-10-03T08:23:02.748Z,101678.34
2022-10-03T08:26:01.202Z,101682.09
2022-10-03T08:28:41.236Z,101680.59
2022-10-03T08:31:30.309Z,101689.34
2022-10-03T08:34:12.007Z,101693.09
2022-10-03T08:36:42.514Z,101688.06
2022-10-03T08:39:12.996Z,101690.34
2022-10-03T08:41:57.836Z,101697.00
2022-10-03T08:44:33.961Z,101690.34
2022-10-03T08:47:19.494Z,101700.56
2022-10-03T08:50:05.679Z,101698.34
2022-10-03T08:52:35.105Z,101704.09
2022-10-03T08:55:14.309Z,101699.88
2022-10-03T08:57:46.808Z,101702.59
2022-10-03T09:00:17.892Z,101698.56
2022-10-03T09:03:31.444Z,101691.56
2022-10-03T09:06:03.561Z,101698.19
2022-10-03T09:08:51.029Z,101699.53
2022-10-03T09:11:20.333Z,101695.31
2022-10-03T09:13:57.727Z,101695.31
2022-10-03T09:16:35.640Z,101685.28
2022-10-03T09:19:11.175Z,101691.03
2022-10-03T09:21:40.842Z,101695.41
2022-10-03T09:24:14.597Z,101693.28
2022-10-03T09:26:46.595Z,101689.00
2022-10-03T09:29:20.135Z,101702.66
2022-10-03T09:32:02.218Z,101698.28
2022-10-03T09:34:36.315Z,101691.88
2022-10-03T09:37:20.281Z,101698.53
2022-10-03T09:40:05.391Z,101702.78
2022-10-03T09:42:43.449Z,101698.53
2022-10-03T09:45:15.024Z,101705.78
2022-10-03T09:47:51.804Z,101705.78
2022-10-03T09:50:36.520Z,101705.78
2022-10-03T09:53:21.635Z,101705.91
2022-10-03T09:56:06.877Z,101711.03
2022-10-03T09:58:44.933Z,101701.75
2022-10-03T10:01:29.940Z,101712.53
2022-10-03T10:04:22.093Z,101713.38
2022-10-03T10:07:01.873Z,101704.75
2022-10-03T10:09:33.246Z,101707.75
2022-10-03T10:12:03.010Z,101713.50
2022-10-03T10:14:41.463Z,101709.25
2022-10-03T10:17:30.357Z,101709.25
2022-10-03T10:20:15.504Z,101712.22
2022-10-03T10:22:56.223Z,101709.47
2022-10-03T10:25:33.666Z,101704.47
2022-10-03T10:28:18.946Z,101706.69
2022-10-03T10:31:04.116Z,101703.72
2022-10-03T10:33:49.358Z,101726.75
2022-10-03T10:36:34.477Z,101715.34
2022-10-03T10:39:08.550Z,101701.91
2022-10-03T10:41:56.141Z,101701.97
2022-10-03T10:44:40.949Z,101700.16
2022-10-03T10:47:13.020Z,101699.03
2022-10-03T10:49:45.841Z,101693.88
2022-10-03T10:52:21.177Z,101696.66
2022-10-03T10:54:53.649Z,101694.28
2022-10-03T10:57:39.210Z,101706.28
2022-10-03T11:00:10.108Z,101705.44
2022-10-03T11:02:43.690Z,101722.75
2022-10-03T11:05:29.742Z,101705.75
2022-10-03T11:08:14.665Z,101714.28
2022-10-03T11:10:59.745Z,101707.81
2022-10-03T11:13:38.512Z,101709.38
2022-10-03T11:16:12.547Z,101713.56
2022-10-03T11:18:51.202Z,101727.03
2022-10-03T11:21:33.149Z,101724.03
2022-10-03T11:24:08.874Z,101715.81
2022-10-03T11:26:54.095Z,101722.66
2022-10-03T11:29:40.929Z,101723.28
2022-10-03T11:32:31.922Z,101714.69
2022-10-03T11:35:17.136Z,101723.31
2022-10-03T11:37:43.371Z,101720.72
2022-10-03T11:40:24.746Z,101722.88
2022-10-03T11:43:18.089Z,101706.63
2022-10-03T11:45:47.055Z,101720.84
2022-10-03T11:48:32.314Z,101710.78
2022-10-03T11:51:07.607Z,101709.31
2022-10-03T11:53:33.858Z,101708.44
2022-10-03T11:56:18.745Z,101716.28
2022-10-03T11:58:54.130Z,101704.19
2022-10-03T12:01:20.349Z,101696.91
2022-10-03T12:03:51.637Z,101699.03
2022-10-03T12:06:44.355Z,101699.22
2022-10-03T12:09:16.627Z,101702.69
2022-10-03T12:11:53.195Z,101698.19
2022-10-03T12:14:23.769Z,101685.38
2022-10-03T12:16:57.323Z,101679.84
2022-10-03T12:19:24.983Z,101682.63
2022-10-03T12:21:53.659Z,101679.59
2022-10-03T12:24:27.162Z,101684.00
2022-10-03T12:27:02.189Z,101679.16
2022-10-03T12:29:31.261Z,101680.25
2022-10-03T12:32:12.127Z,101687.19
2022-10-03T12:34:50.111Z,101691.03
2022-10-03T12:37:25.826Z,101683.44
2022-10-03T12:40:00.769Z,101690.31
2022-10-03T12:42:29.925Z,101690.63
2022-10-03T12:45:03.763Z,101685.69
2022-10-03T12:47:54.143Z,101682.56
2022-10-03T12:50:24.006Z,101683.06
2022-10-03T12:52:54.638Z,101685.00
2022-10-03T12:55:23.838Z,101682.97
2022-10-03T12:58:09.040Z,101679.78
2022-10-03T13:00:45.844Z,101671.69
2022-10-03T13:03:17.272Z,101678.97
2022-10-03T13:06:07.042Z,101675.97
2022-10-03T13:08:33.557Z,101681.75
2022-10-03T13:11:08.779Z,101682.91
2022-10-03T13:13:53.647Z,101682.72
2022-10-03T13:16:30.124Z,101672.13
2022-10-03T13:19:14.906Z,101689.09
2022-10-03T13:21:46.444Z,101682.47
2022-10-03T13:24:22.215Z,101692.22
2022-10-03T13:26:51.597Z,101685.34
2022-10-03T13:29:29.997Z,101694.00
2022-10-03T13:31:56.461Z,101692.94
2022-10-03T13:34:24.313Z,101691.63
2022-10-03T13:36:55.398Z,101688.03
2022-10-03T13:39:26.034Z,101692.88
2022-10-03T13:42:00.264Z,101690.09
2022-10-03T13:44:36.728Z,101688.50
2022-10-03T13:47:08.454Z,101698.63
2022-10-03T13:49:36.034Z,101695.84
2022-10-03T13:52:07.262Z,101703.03
2022-10-03T13:54:56.721Z,101694.03
2022-10-03T13:57:23.765Z,101694.66
2022-10-03T14:00:04.697Z,101693.69
2022-10-03T14:02:42.607Z,101692.97
2022-10-03T14:05:27.330Z,101692.44
2022-10-03T14:07:55.291Z,101688.84
2022-10-03T14:10:37.598Z,101692.25
2022-10-03T14:13:25.994Z,101690.34
2022-10-03T14:15:55.520Z,101683.03
2022-10-03T14:18:40.747Z,101683.50
2022-10-03T14:21:27.074Z,101689.28
2022-10-03T14:23:57.946Z,101679.91
2022-10-03T14:26:39.034Z,101673.13
2022-10-03T14:29:12.920Z,101675.09
2022-10-03T14:31:41.960Z,101686.44
2022-10-03T14:34:11.657Z,101674.91
2022-10-03T14:36:43.346Z,101681.97
2022-10-03T14:39:48.542Z,101671.06
2022-10-03T14:42:32.532Z,101684.75
2022-10-03T14:45:00.014Z,101677.13
2022-10-03T14:47:31.236Z,101666.16
2022-10-03T14:49:59.720Z,101681.41
2022-10-03T14:52:42.994Z,101669.13
2022-10-03T14:55:13.621Z,101669.78
2022-10-03T14:58:05.956Z,101673.22
2022-10-03T15:00:35.569Z,101673.00
2022-10-03T15:03:17.257Z,101665.81
2022-10-03T15:06:03.473Z,101667.22
2022-10-03T15:08:31.206Z,101659.75
2022-10-03T15:10:57.529Z,101671.28
2022-10-03T15:13:23.859Z,101664.00
2022-10-03T15:15:50.485Z,101662.41
2022-10-03T15:18:18.242Z,101668.19
2022-10-03T15:20:44.726Z,101673.22
2022-10-03T15:23:21.747Z,101661.56
2022-10-03T15:25:52.929Z,101662.19
2022-10-03T15:28:30.315Z,101659.19
2022-10-03T15:30:56.680Z,101666.16
2022-10-03T15:33:32.834Z,101672.13
2022-10-03T15:36:19.325Z,101662.63
2022-10-03T15:38:48.105Z,101667.75
2022-10-03T15:41:16.510Z,101671.69
2022-10-03T15:43:42.791Z,101667.53
2022-10-03T15:46:27.809Z,101667.44
2022-10-03T15:48:54.219Z,101667.31
2022-10-03T15:51:20.904Z,101662.19
2022-10-03T15:53:48.033Z,101670.22
2022-10-03T15:56:18.929Z,101670.00
2022-10-03T15:58:49.527Z,101668.59
2022-10-03T16:01:22.720Z,101668.59
2022-10-03T16:03:59.930Z,101670.84
2022-10-03T16:06:47.645Z,101672.75
2022-10-03T16:09:16.366Z,101667.97
2022-10-03T16:11:46.684Z,101671.59
2022-10-03T16:14:23.051Z,101671.47
2022-10-03T16:16:54.115Z,101666.25
2022-10-03T16:19:21.285Z,101668.38
2022-10-03T16:21:47.614Z,101676.94
2022-10-03T16:24:27.502Z,101672.53
2022-10-03T16:26:59.608Z,101673.38
2022-10-03T16:29:27.521Z,101672.41
2022-10-03T16:31:56.938Z,101676.03
2022-10-03T16:34:25.501Z,101668.16
2022-10-03T16:36:51.863Z,101670.94
2022-10-03T16:39:23.726Z,101665.81
2022-10-03T16:41:50.499Z,101670.81
2022-10-03T16:44:19.853Z,101668.34
2022-10-03T16:46:46.184Z,101673.50
2022-10-03T16:49:43.664Z,101675.31
2022-10-03T16:52:13.404Z,101662.28
2022-10-03T16:54:40.996Z,101665.47
2022-10-03T16:57:14.674Z,101664.16
2022-10-03T16:59:41.932Z,101665.06
2022-10-03T17:02:12.003Z,101681.00
2022-10-03T17:04:42.292Z,101692.78
2022-10-03T17:07:13.114Z,101684.25
2022-10-03T17:09:46.168Z,101690.75
2022-10-03T17:12:16.677Z,101689.28
2022-10-03T17:14:44.526Z,101698.84
2022-10-03T17:17:11.182Z,101697.88
2022-10-03T17:19:39.723Z,101683.53
2022-10-03T17:22:16.391Z,101686.09
2022-10-03T17:24:44.512Z,101685.38
2022-10-03T17:27:14.103Z,101682.81
2022-10-03T17:29:45.646Z,101691.75
2022-10-03T17:32:14.420Z,101683.53
2022-10-03T17:34:47.880Z,101673.00
2022-10-03T17:37:17.141Z,101686.91
2022-10-03T17:39:48.359Z,101674.28
2022-10-03T17:42:22.746Z,101675.59
2022-10-03T17:44:55.697Z,101679.63
2022-10-03T17:47:22.927Z,101675.06
2022-10-03T17:49:51.287Z,101677.22
2022-10-03T17:52:18.662Z,101680.22
2022-10-03T17:54:46.245Z,101677.44
2022-10-03T17:57:15.361Z,101670.28
2022-10-03T17:59:46.680Z,101671.78
2022-10-03T18:02:15.373Z,101684.69
2022-10-03T18:04:42.731Z,101673.16
2022-10-03T18:07:09.317Z,101678.94
2022-10-03T18:09:43.438Z,101674.78
2022-10-03T18:12:16.985Z,101678.81
2022-10-03T18:14:47.633Z,101681.50
2022-10-03T18:17:19.390Z,101669.03
2022-10-03T18:20:07.607Z,101682.16
2022-10-03T18:22:40.899Z,101675.00
2022-10-03T18:25:37.478Z,101685.28
2022-10-03T18:28:14.727Z,101677.88
2022-10-03T18:30:45.452Z,101673.41
2022-10-03T18:33:15.675Z,101674.25
2022-10-03T18:35:42.550Z,101673.50
2022-10-03T18:38:19.526Z,101674.25
2022-10-03T18:40:47.439Z,101679.28
2022-10-03T18:43:31.229Z,101676.50
2022-10-03T18:45:59.987Z,101681.00
2022-10-03T18:48:41.010Z,101673.75
2022-10-03T18:51:15.650Z,101677.13
2022-10-03T18:53:44.266Z,101680.75
2022-10-03T18:56:11.298Z,101677.88
2022-10-03T18:58:38.414Z,101672.00
2022-10-03T19:01:10.819Z,101672.00
2022-10-03T19:03:41.228Z,101683.63
2022-10-03T19:06:19.791Z,101668.50
2022-10-03T19:08:52.789Z,101669.22
2022-10-03T19:11:26.508Z,101673.50
2022-10-03T19:13:57.351Z,101670.50
2022-10-03T19:16:29.535Z,101675.00
2022-10-03T19:18:57.145Z,101685.66
2022-10-03T19:21:23.498Z,101672.00
2022-10-03T19:23:57.040Z,101673.41
2022-10-03T19:26:25.611Z,101678.53
2022-10-03T19:28:52.696Z,101673.41
2022-10-03T19:31:26.125Z,101681.28
2022-10-03T19:33:55.826Z,101677.75
2022-10-03T19:36:22.496Z,101682.03
2022-10-03T19:38:48.839Z,101682.03
2022-10-03T19:41:19.978Z,101684.06
2022-10-03T19:43:49.997Z,101682.66
2022-10-03T19:46:25.812Z,101679.03
2022-10-03T19:48:54.942Z,101684.81
2022-10-03T19:51:25.465Z,101678.53
2022-10-03T19:53:52.779Z,101684.91
2022-10-03T19:56:19.343Z,101683.53
2022-10-03T19:58:46.118Z,101679.16
2022-10-03T20:01:12.525Z,101686.41
2022-10-03T20:03:40.201Z,101676.38
2022-10-03T20:06:06.593Z,101682.16
2022-10-03T20:08:44.280Z,101682.91
2022-10-03T20:11:20.250Z,101684.28
2022-10-03T20:13:47.872Z,101687.69
2022-10-03T20:16:18.166Z,101676.28
2022-10-03T20:18:44.691Z,101679.16
2022-10-03T20:21:11.435Z,101670.63
2022-10-03T20:23:39.640Z,101673.41
2022-10-03T20:26:10.278Z,101671.78
2022-10-03T20:28:45.675Z,101676.16
2022-10-03T20:31:12.051Z,101674.88
2022-10-03T20:33:38.411Z,101670.50
2022-10-03T20:36:16.666Z,101667.53
2022-10-03T20:39:02.867Z,101674.69
2022-10-03T20:41:31.997Z,101673.41
2022-10-03T20:44:17.864Z,101679.16
2022-10-03T20:46:45.644Z,101686.31
2022-10-03T20:49:24.158Z,101686.81
2022-10-03T20:51:53.382Z,101683.31
2022-10-03T20:54:20.357Z,101680.44
2022-10-03T20:56:55.484Z,101689.72
2022-10-03T20:59:24.957Z,101689.19
2022-10-03T21:01:57.599Z,101689.28
2022-10-03T21:04:28.905Z,101686.53
2022-10-03T21:06:57.825Z,101695.28
2022-10-03T21:09:27.891Z,101689.53
2022-10-03T21:11:54.810Z,101687.91
2022-10-03T21:14:23.386Z,101685.03
2022-10-03T21:16:50.501Z,101695.06
2022-10-03T21:19:40.123Z,101689.28
2022-10-03T21:22:07.070Z,101692.81
2022-10-03T21:24:40.093Z,101689.28
2022-10-03T21:27:06.990Z,101686.31
2022-10-03T21:29:36.534Z,101682.03
2022-10-03T21:32:17.973Z,101680.56
2022-10-03T21:34:49.541Z,101683.44
2022-10-03T21:37:27.247Z,101679.16
2022-10-03T21:40:06.527Z,101677.75
2022-10-03T21:42:53.513Z,101678.41
2022-10-03T21:45:21.769Z,101677.75
2022-10-03T21:47:49.130Z,101675.53
2022-10-03T21:50:22.373Z,101676.28
2022-10-03T21:52:54.528Z,101674.78
2022-10-03T21:55:51.832Z,101680.44
2022-10-03T21:58:25.446Z,101666.03
2022-10-03T22:01:11.998Z,101677.56
2022-10-03T22:03:44.156Z,101666.03
2022-10-03T22:06:13.638Z,101671.91
2022-10-03T22:08:40.422Z,101670.50
2022-10-03T22:11:30.607Z,101669.03
2022-10-03T22:14:05.174Z,101662.50
2022-10-03T22:16:49.760Z,101671.16
2022-10-03T22:19:20.315Z,101664.63
2022-10-03T22:21:46.614Z,101662.50
2022-10-03T22:24:19.058Z,101670.41
2022-10-03T22:26:47.144Z,101669.03
2022-10-03T22:29:19.517Z,101653.13
2022-10-03T22:31:51.316Z,101662.38
2022-10-03T22:34:24.304Z,101658.88
2022-10-03T22:36:50.609Z,101656.00
2022-10-03T22:39:18.015Z,101650.22
2022-10-03T22:41:46.259Z,101651.75
2022-10-03T22:44:12.623Z,101653.13
2022-10-03T22:46:39.492Z,101653.84
2022-10-03T22:49:06.878Z,101654.63
2022-10-03T22:51:33.215Z,101653.22
2022-10-03T22:54:01.884Z,101656.00
2022-10-03T22:56:32.654Z,101647.25
2022-10-03T22:58:59.459Z,101650.13
2022-10-03T23:01:25.766Z,101653.00
2022-10-03T23:03:52.109Z,101654.50
2022-10-03T23:06:40.933Z,101656.63
2022-10-03T23:09:33.671Z,101643.00
2022-10-03T23:11:59.988Z,101652.38
2022-10-03T23:14:30.068Z,101646.00
2022-10-03T23:17:08.470Z,101649.59
2022-10-03T23:19:37.886Z,101650.13
2022-10-03T23:22:04.201Z,101649.50
2022-10-03T23:24:32.441Z,101647.97
2022-10-03T23:27:01.670Z,101648.63
2022-10-03T23:29:28.015Z,101650.13
2022-10-03T23:31:59.665Z,101653.13
2022-10-03T23:34:37.974Z,101653.00
2022-10-03T23:37:13.185Z,101655.75
2022-10-03T23:39:40.131Z,101661.66
2022-10-03T23:42:10.260Z,101658.75
2022-10-03T23:44:41.991Z,101664.53
2022-10-03T23:47:10.428Z,101660.28
2022-10-03T23:49:36.742Z,101662.50
2022-10-03T23:52:03.192Z,101671.69
2022-10-03T23:54:29.510Z,101668.81
2022-10-03T23:57:00.048Z,101675.31
2022-10-03T23:59:26.369Z,101669.53
